Time;durP1;ratioP1;P1;durP2;ratioP2;P2;SDS_P1;SDS_P2;PMS_P1;PMS_P2;Temp;Humidity;BMP_temperature;BMP_pressure;BME280_temperature;BME280_humidity;BME280_pressure;Samples;Min_cycle;Max_cycle;Signal;HPM_P1;HPM_P2
2022/02/20 00:00:16;;;;;;;2.90;1.73;;;6.70;99.90;;;;;;5033369;28;21025;-72
2022/02/20 00:02:44;;;;;;;3.50;1.20;;;6.80;99.90;;;;;;5007920;28;20556;-72
2022/02/20 00:05:11;;;;;;;3.03;1.17;;;6.80;99.90;;;;;;5010880;28;21018;-74
2022/02/20 00:07:38;;;;;;;5.57;1.53;;;6.80;99.90;;;;;;5011512;28;20492;-72
2022/02/20 00:10:06;;;;;;;5.63;1.63;;;6.80;99.90;;;;;;5012089;28;20540;-72
2022/02/20 00:12:33;;;;;;;3.90;1.70;;;6.70;99.90;;;;;;5012329;28;20459;-74
2022/02/20 00:15:00;;;;;;;5.00;1.47;;;6.70;99.90;;;;;;5011241;28;20980;-74
2022/02/20 00:17:26;;;;;;;3.60;1.80;;;6.60;99.90;;;;;;5011965;28;20458;-74
2022/02/20 00:19:55;;;;;;;4.23;1.30;;;6.60;99.90;;;;;;5011539;28;20540;-74
2022/02/20 00:22:21;;;;;;;4.30;1.50;;;6.50;99.90;;;;;;5011690;28;20538;-74
2022/02/20 00:24:48;;;;;;;5.63;2.13;;;6.50;99.90;;;;;;5011240;28;20493;-74
2022/02/20 00:27:15;;;;;;;7.03;2.20;;;6.60;99.90;;;;;;5011843;28;21022;-74
2022/02/20 00:29:42;;;;;;;4.73;1.60;;;6.50;99.90;;;;;;5011844;28;20536;-74
2022/02/20 00:32:09;;;;;;;7.60;1.53;;;6.50;99.90;;;;;;5011352;28;20445;-74
2022/02/20 00:34:36;;;;;;;4.67;1.53;;;6.50;99.90;;;;;;5011008;28;20468;-74
2022/02/20 00:37:05;;;;;;;4.83;1.63;;;6.50;99.90;;;;;;5011651;28;20453;-73
2022/02/20 00:39:32;;;;;;;4.63;1.60;;;6.40;99.90;;;;;;5011659;28;20529;-74
2022/02/20 00:41:59;;;;;;;9.23;2.43;;;6.40;99.90;;;;;;5011182;28;20450;-73
2022/02/20 00:44:25;;;;;;;6.60;1.60;;;6.30;99.90;;;;;;5011099;28;20489;-73
2022/02/20 00:46:52;;;;;;;6.30;2.10;;;6.20;99.90;;;;;;5011789;28;20552;-74
2022/02/20 00:49:19;;;;;;;5.30;1.87;;;6.20;99.90;;;;;;5018449;28;20812;-74
2022/02/20 00:51:46;;;;;;;8.03;2.30;;;6.30;99.90;;;;;;5012909;28;20442;-74
2022/02/20 00:54:14;;;;;;;8.77;2.50;;;6.30;99.90;;;;;;5012428;28;20552;-74
2022/02/20 00:56:41;;;;;;;5.33;1.67;;;6.30;99.90;;;;;;5012697;28;20452;-74
2022/02/20 00:59:08;;;;;;;4.10;1.87;;;6.20;99.90;;;;;;5012753;28;20540;-74
2022/02/20 01:01:35;;;;;;;5.53;1.90;;;6.30;99.90;;;;;;5012792;28;20453;-71
2022/02/20 01:04:02;;;;;;;2.70;1.60;;;6.30;99.90;;;;;;5012493;28;20482;-74
2022/02/20 01:06:29;;;;;;;6.83;1.70;;;6.30;99.90;;;;;;5012652;28;20581;-74
2022/02/20 01:08:56;;;;;;;8.00;2.47;;;6.30;99.90;;;;;;5012844;28;20450;-74
2022/02/20 01:11:24;;;;;;;5.23;1.70;;;6.30;99.90;;;;;;5012804;28;20456;-74
2022/02/20 01:13:51;;;;;;;3.33;1.60;;;6.30;99.90;;;;;;5012404;28;20526;-74
2022/02/20 01:16:18;;;;;;;3.07;1.30;;;6.30;99.90;;;;;;5012302;28;20466;-74
2022/02/20 01:18:45;;;;;;;3.90;1.73;;;6.30;99.90;;;;;;5012340;28;20450;-74
2022/02/20 01:21:12;;;;;;;3.40;1.20;;;6.30;99.90;;;;;;5012678;28;20460;-74
2022/02/20 01:23:39;;;;;;;3.23;1.50;;;6.30;99.90;;;;;;5012452;28;20913;-74
2022/02/20 01:26:06;;;;;;;6.23;1.60;;;6.30;99.90;;;;;;5012352;28;20476;-74
2022/02/20 01:28:34;;;;;;;7.37;1.87;;;6.30;99.90;;;;;;5012594;28;20461;-74
2022/02/20 01:31:01;;;;;;;5.97;1.47;;;6.30;99.90;;;;;;5012477;28;20965;-74
2022/02/20 01:33:28;;;;;;;5.07;1.90;;;6.30;99.90;;;;;;5012615;28;20537;-74
2022/02/20 01:35:55;;;;;;;7.03;1.50;;;6.30;99.90;;;;;;5012170;28;20536;-73
2022/02/20 01:38:22;;;;;;;4.73;1.40;;;6.30;99.90;;;;;;5012425;28;20987;-74
2022/02/20 01:40:50;;;;;;;4.33;1.83;;;6.40;99.90;;;;;;5012287;28;20457;-74
2022/02/20 01:43:17;;;;;;;5.30;1.77;;;6.30;99.90;;;;;;5012071;28;20478;-74
2022/02/20 01:45:45;;;;;;;3.80;1.67;;;6.30;99.90;;;;;;5011472;28;20568;-74
2022/02/20 01:48:12;;;;;;;4.23;1.53;;;6.30;99.90;;;;;;5012152;28;20453;-74
2022/02/20 01:50:39;;;;;;;4.53;1.63;;;6.30;99.90;;;;;;5011900;28;20456;-74
2022/02/20 01:53:06;;;;;;;4.10;2.13;;;6.30;99.90;;;;;;5011700;28;20453;-74
2022/02/20 01:55:33;;;;;;;4.83;1.70;;;6.30;99.90;;;;;;5011391;28;20472;-74
2022/02/20 01:58:00;;;;;;;4.83;1.43;;;6.30;99.90;;;;;;5011602;28;20528;-74
2022/02/20 02:00:27;;;;;;;11.50;2.00;;;6.30;99.90;;;;;;5011556;28;20442;-74
2022/02/20 02:02:55;;;;;;;3.30;1.70;;;6.30;99.90;;;;;;5011674;28;20453;-74
2022/02/20 02:05:22;;;;;;;4.07;1.60;;;6.30;99.90;;;;;;5010205;28;20492;-74
2022/02/20 02:07:51;;;;;;;6.10;1.50;;;6.40;99.90;;;;;;5009956;28;20472;-74
2022/02/20 02:10:18;;;;;;;3.70;1.70;;;6.40;99.90;;;;;;5011631;28;20528;-74
2022/02/20 02:12:45;;;;;;;6.60;1.47;;;6.40;99.90;;;;;;5011464;28;20833;-74
2022/02/20 02:15:13;;;;;;;2.83;1.60;;;6.40;99.90;;;;;;5011019;28;20466;-74
2022/02/20 02:17:41;;;;;;;3.50;1.37;;;6.40;99.90;;;;;;5011321;28;20460;-74
2022/02/20 02:20:10;;;;;;;2.80;1.30;;;6.40;99.90;;;;;;5011212;28;20473;-74
2022/02/20 02:22:39;;;;;;;6.70;1.50;;;6.40;99.90;;;;;;5011524;28;20450;-74
2022/02/20 02:25:07;;;;;;;6.43;1.57;;;6.40;99.90;;;;;;5010974;28;20847;-74
2022/02/20 02:27:35;;;;;;;2.90;1.30;;;6.30;99.90;;;;;;5011214;28;20452;-74
2022/02/20 02:30:05;;;;;;;3.50;1.60;;;6.40;99.90;;;;;;5011126;28;20455;-74
2022/02/20 02:32:31;;;;;;;4.10;1.87;;;6.40;99.90;;;;;;5010835;28;20454;-74
2022/02/20 02:34:58;;;;;;;3.17;1.40;;;6.50;99.90;;;;;;5010807;28;20500;-74
2022/02/20 02:37:25;;;;;;;3.60;1.40;;;6.40;99.90;;;;;;5010866;28;20441;-74
2022/02/20 02:39:53;;;;;;;6.93;1.63;;;6.50;99.90;;;;;;5011000;28;20533;-74
2022/02/20 02:42:20;;;;;;;6.47;1.73;;;6.50;99.90;;;;;;5010863;28;20450;-74
2022/02/20 02:44:47;;;;;;;2.83;1.00;;;6.50;99.90;;;;;;5010503;28;20525;-74
2022/02/20 02:47:14;;;;;;;7.47;1.30;;;6.50;99.90;;;;;;5010595;28;20449;-73
2022/02/20 02:49:41;;;;;;;6.27;2.17;;;6.50;99.90;;;;;;5010861;28;20463;-74
2022/02/20 02:52:08;;;;;;;5.80;1.73;;;6.50;99.90;;;;;;5010886;28;20544;-73
2022/02/20 02:54:35;;;;;;;5.90;2.10;;;6.50;99.90;;;;;;5010386;28;20552;-74
2022/02/20 02:57:04;;;;;;;4.57;1.70;;;6.40;99.90;;;;;;5010754;28;20454;-74
2022/02/20 02:59:31;;;;;;;4.07;1.53;;;6.40;99.90;;;;;;5010588;28;20449;-74
2022/02/20 03:02:03;;;;;;;5.37;1.90;;;6.30;99.90;;;;;;5010450;28;20460;-74
2022/02/20 03:04:30;;;;;;;3.50;1.30;;;6.30;99.90;;;;;;5010075;28;20987;-73
2022/02/20 03:06:57;;;;;;;4.03;1.13;;;6.30;99.90;;;;;;5010431;28;20474;-73
2022/02/20 03:09:24;;;;;;;6.23;1.40;;;6.40;99.90;;;;;;5010588;28;20489;-74
2022/02/20 03:11:51;;;;;;;4.40;1.40;;;6.40;99.90;;;;;;5010377;28;20438;-73
2022/02/20 03:14:19;;;;;;;3.53;1.30;;;6.40;99.90;;;;;;5009870;28;20529;-73
2022/02/20 03:16:46;;;;;;;4.97;1.30;;;6.50;99.90;;;;;;5010273;28;20819;-73
2022/02/20 03:19:13;;;;;;;3.80;1.30;;;6.50;99.90;;;;;;5010257;28;20450;-73
2022/02/20 03:21:40;;;;;;;3.77;1.40;;;6.50;99.90;;;;;;5010559;28;20536;-73
2022/02/20 03:24:07;;;;;;;4.23;1.50;;;6.50;99.90;;;;;;5010306;28;20852;-74
2022/02/20 03:26:34;;;;;;;3.70;1.13;;;6.40;99.90;;;;;;5010353;28;20493;-74
2022/02/20 03:29:01;;;;;;;4.93;1.60;;;6.40;99.90;;;;;;5010371;28;20453;-73
2022/02/20 03:31:29;;;;;;;5.23;1.60;;;6.50;99.90;;;;;;5010637;28;20991;-73
2022/02/20 03:33:56;;;;;;;6.00;1.60;;;6.40;99.90;;;;;;5010486;28;20548;-73
2022/02/20 03:36:23;;;;;;;4.13;1.30;;;6.50;99.90;;;;;;5010135;28;20472;-73
2022/02/20 03:38:50;;;;;;;3.80;1.43;;;6.50;99.90;;;;;;5010301;28;20453;-73
2022/02/20 03:41:17;;;;;;;4.00;1.10;;;6.50;99.90;;;;;;5010027;28;20481;-73
2022/02/20 03:43:43;;;;;;;9.10;1.50;;;6.60;99.90;;;;;;5009978;28;21150;-74
2022/02/20 03:46:10;;;;;;;4.10;1.27;;;6.60;99.90;;;;;;5009664;28;20585;-73
2022/02/20 03:48:38;;;;;;;4.03;1.00;;;6.60;99.90;;;;;;5010040;28;20446;-73
2022/02/20 03:51:05;;;;;;;8.93;1.53;;;6.60;99.90;;;;;;5010148;28;20453;-73
2022/02/20 03:53:32;;;;;;;4.20;1.60;;;6.60;99.90;;;;;;5009928;28;20534;-73
2022/02/20 03:55:59;;;;;;;2.77;0.90;;;6.70;99.90;;;;;;5009490;28;20473;-73
2022/02/20 03:58:26;;;;;;;3.23;1.00;;;6.60;99.90;;;;;;5010193;28;20460;-73
2022/02/20 04:00:53;;;;;;;3.03;1.23;;;6.60;99.90;;;;;;5010006;28;20869;-73
2022/02/20 04:03:19;;;;;;;2.87;1.30;;;6.60;99.90;;;;;;5009974;28;20572;-73
2022/02/20 04:05:48;;;;;;;3.73;1.20;;;6.40;99.90;;;;;;5009347;28;20512;-73
2022/02/20 04:08:14;;;;;;;4.93;1.20;;;6.30;99.90;;;;;;5009816;28;20446;-73
2022/02/20 04:10:41;;;;;;;3.00;1.43;;;6.40;99.90;;;;;;5009638;28;20528;-73
2022/02/20 04:13:08;;;;;;;2.90;0.83;;;6.40;99.90;;;;;;5009982;28;20457;-73
2022/02/20 04:15:35;;;;;;;2.07;1.00;;;6.40;99.90;;;;;;5009550;28;20473;-73
2022/02/20 04:18:02;;;;;;;3.83;1.10;;;6.40;99.90;;;;;;5009755;28;20446;-73
2022/02/20 04:20:29;;;;;;;3.30;1.20;;;6.40;99.90;;;;;;5009798;28;20445;-74
2022/02/20 04:22:57;;;;;;;3.67;1.17;;;6.40;99.90;;;;;;5009621;28;20446;-73
2022/02/20 04:25:24;;;;;;;3.87;1.07;;;6.50;99.90;;;;;;5009132;28;20493;-73
2022/02/20 04:27:51;;;;;;;2.50;1.10;;;6.40;99.90;;;;;;5009679;28;20450;-73
2022/02/20 04:30:19;;;;;;;3.47;1.00;;;6.40;99.90;;;;;;5011056;28;21176;-73
2022/02/20 04:32:46;;;;;;;4.90;1.50;;;6.30;99.90;;;;;;5013409;28;20544;-73
2022/02/20 04:35:13;;;;;;;2.40;1.03;;;6.20;99.90;;;;;;5013029;28;20476;-73
2022/02/20 04:37:40;;;;;;;2.57;0.87;;;6.10;99.90;;;;;;5013013;28;20943;-73
2022/02/20 04:40:09;;;;;;;3.63;1.17;;;6.20;99.90;;;;;;5013428;28;20540;-73
2022/02/20 04:42:36;;;;;;;4.47;1.23;;;6.20;99.90;;;;;;5013334;28;20813;-73
2022/02/20 04:45:03;;;;;;;4.03;1.10;;;6.10;99.90;;;;;;5012545;28;20484;-73
2022/02/20 04:47:30;;;;;;;2.57;1.30;;;6.10;99.90;;;;;;5012905;28;20456;-73
2022/02/20 04:49:57;;;;;;;2.83;0.93;;;6.00;99.90;;;;;;5013012;28;20536;-73
2022/02/20 04:52:24;;;;;;;2.57;0.83;;;6.00;99.90;;;;;;5012750;28;20943;-73
2022/02/20 04:54:50;;;;;;;2.40;0.93;;;6.00;99.90;;;;;;5012508;28;21020;-73
2022/02/20 04:57:19;;;;;;;2.43;1.07;;;6.10;99.90;;;;;;5012953;28;20449;-73
2022/02/20 04:59:46;;;;;;;2.93;2.00;;;6.10;99.90;;;;;;5012900;28;20441;-73
2022/02/20 05:02:12;;;;;;;2.53;0.70;;;6.00;99.90;;;;;;5012689;28;20542;-73
2022/02/20 05:04:39;;;;;;;2.93;0.70;;;6.00;99.90;;;;;;5012364;28;20473;-73
2022/02/20 05:07:08;;;;;;;2.80;0.90;;;6.10;99.90;;;;;;5012638;28;20883;-73
2022/02/20 05:09:36;;;;;;;2.10;0.83;;;6.10;99.90;;;;;;5012956;28;20450;-73
2022/02/20 05:12:03;;;;;;;2.57;0.87;;;6.10;99.90;;;;;;5012963;28;20477;-73
2022/02/20 05:14:32;;;;;;;3.50;1.63;;;6.10;99.90;;;;;;5012448;28;20457;-73
2022/02/20 05:16:58;;;;;;;1.60;0.60;;;6.10;99.90;;;;;;5012757;28;20442;-73
2022/02/20 05:19:25;;;;;;;2.57;0.80;;;6.10;99.90;;;;;;5012578;28;20456;-73
2022/02/20 05:21:52;;;;;;;6.20;1.10;;;6.00;99.90;;;;;;5012385;28;20933;-73
2022/02/20 05:24:19;;;;;;;1.83;0.77;;;6.00;99.90;;;;;;5011998;28;20452;-73
2022/02/20 05:26:46;;;;;;;5.20;1.47;;;6.00;99.90;;;;;;5012214;28;20838;-73
2022/02/20 05:29:12;;;;;;;2.70;1.00;;;6.10;99.90;;;;;;5012128;28;20456;-73
2022/02/20 05:31:41;;;;;;;5.07;1.07;;;6.00;99.90;;;;;;5012011;28;20541;-73
2022/02/20 05:34:07;;;;;;;2.07;0.80;;;6.10;99.90;;;;;;5011821;28;20488;-73
2022/02/20 05:36:34;;;;;;;2.10;0.80;;;6.10;99.90;;;;;;5012091;28;20466;-73
2022/02/20 05:39:01;;;;;;;3.70;1.00;;;6.10;99.90;;;;;;5012089;28;20452;-73
2022/02/20 05:41:28;;;;;;;2.23;1.17;;;6.10;99.90;;;;;;5010991;28;20450;-73
2022/02/20 05:43:55;;;;;;;1.73;0.83;;;6.20;99.90;;;;;;5011758;28;21130;-73
2022/02/20 05:46:21;;;;;;;4.77;1.40;;;6.10;99.90;;;;;;5011434;28;20496;-73
2022/02/20 05:48:50;;;;;;;2.63;0.80;;;6.10;99.90;;;;;;5011735;28;20970;-73
2022/02/20 05:51:16;;;;;;;2.03;0.73;;;6.10;99.90;;;;;;5011927;28;20473;-73
2022/02/20 05:53:43;;;;;;;2.80;0.90;;;6.10;99.90;;;;;;5011752;28;20461;-73
2022/02/20 05:56:10;;;;;;;1.70;0.80;;;6.10;99.90;;;;;;5011351;28;20462;-73
2022/02/20 05:58:37;;;;;;;2.47;0.80;;;6.10;99.90;;;;;;5011578;28;20446;-73
2022/02/20 06:01:04;;;;;;;2.87;0.90;;;6.20;99.90;;;;;;5011445;28;20454;-74
2022/02/20 06:03:31;;;;;;;2.87;1.00;;;6.20;99.90;;;;;;5011826;28;20870;-73
2022/02/20 06:05:59;;;;;;;1.93;0.80;;;6.20;99.90;;;;;;5010903;28;21023;-73
2022/02/20 06:08:27;;;;;;;2.83;1.00;;;6.20;99.90;;;;;;5011605;28;20488;-73
2022/02/20 06:10:54;;;;;;;2.33;1.00;;;6.20;99.90;;;;;;5011465;28;20549;-74
2022/02/20 06:13:21;;;;;;;5.27;1.13;;;6.20;99.90;;;;;;5011213;28;20442;-73
2022/02/20 06:15:48;;;;;;;3.80;1.00;;;6.20;99.90;;;;;;5010918;28;20994;-76
2022/02/20 06:18:15;;;;;;;4.40;0.90;;;6.20;99.90;;;;;;5011518;28;20471;-73
2022/02/20 06:20:42;;;;;;;2.17;1.03;;;6.30;99.90;;;;;;5011276;28;20442;-74
2022/02/20 06:23:10;;;;;;;6.00;2.33;;;6.20;99.90;;;;;;5011341;28;20454;-74
2022/02/20 06:25:37;;;;;;;2.30;1.00;;;6.30;99.90;;;;;;5010718;28;20485;-74
2022/02/20 06:28:04;;;;;;;2.43;1.03;;;6.30;99.90;;;;;;5010914;28;20562;-74
2022/02/20 06:30:30;;;;;;;1.67;0.70;;;6.30;99.90;;;;;;5011162;28;20850;-73
2022/02/20 06:32:57;;;;;;;2.67;0.67;;;6.40;99.90;;;;;;5011102;28;20956;-74
2022/02/20 06:35:24;;;;;;;2.23;1.07;;;6.40;99.90;;;;;;5010707;28;20469;-74
2022/02/20 06:37:51;;;;;;;2.47;0.90;;;6.50;99.90;;;;;;5011057;28;20825;-74
2022/02/20 06:40:19;;;;;;;2.00;0.80;;;6.50;99.90;;;;;;5010973;28;20446;-73
2022/02/20 06:42:46;;;;;;;2.53;1.00;;;6.50;99.90;;;;;;5010715;28;20453;-74
2022/02/20 06:45:14;;;;;;;1.80;0.77;;;6.50;99.90;;;;;;5010534;28;20473;-74
2022/02/20 06:47:40;;;;;;;1.80;0.90;;;6.50;99.90;;;;;;5010789;28;20485;-73
2022/02/20 06:50:08;;;;;;;2.33;0.80;;;6.60;99.90;;;;;;5010788;28;20450;-74
2022/02/20 06:52:35;;;;;;;4.67;0.60;;;6.60;99.90;;;;;;5010597;28;20450;-74
2022/02/20 06:55:02;;;;;;;1.40;0.50;;;6.60;99.90;;;;;;5010301;28;20497;-74
2022/02/20 06:57:35;;;;;;;1.50;0.70;;;6.70;99.90;;;;;;5011055;28;20442;-73
2022/02/20 07:00:02;;;;;;;2.47;0.80;;;6.70;99.90;;;;;;5011032;28;20446;-73
2022/02/20 07:02:28;;;;;;;2.27;0.83;;;6.60;99.90;;;;;;5010955;28;20536;-74
2022/02/20 07:04:55;;;;;;;2.20;0.87;;;6.60;99.90;;;;;;5010363;28;20461;-73
2022/02/20 07:07:22;;;;;;;1.80;0.73;;;6.60;99.90;;;;;;5010400;28;20482;-74
2022/02/20 07:09:49;;;;;;;2.37;0.70;;;6.60;99.90;;;;;;5010386;28;20544;-74
2022/02/20 07:12:16;;;;;;;1.70;0.80;;;6.60;99.90;;;;;;5010421;28;20450;-73
2022/02/20 07:14:44;;;;;;;1.50;0.60;;;6.50;99.90;;;;;;5010094;28;20465;-73
2022/02/20 07:17:11;;;;;;;2.83;0.60;;;6.50;99.90;;;;;;5010331;28;20445;-73
2022/02/20 07:19:37;;;;;;;1.70;0.70;;;6.50;99.90;;;;;;5010377;28;20898;-74
2022/02/20 07:22:05;;;;;;;1.50;0.60;;;6.50;99.90;;;;;;5010153;28;20488;-73
2022/02/20 07:24:32;;;;;;;2.80;0.73;;;6.50;99.90;;;;;;5009746;28;20561;-73
2022/02/20 07:26:58;;;;;;;1.93;0.70;;;6.50;99.90;;;;;;5009923;28;20485;-73
2022/02/20 07:29:25;;;;;;;2.20;0.90;;;6.50;99.90;;;;;;5010295;28;20636;-74
2022/02/20 07:31:53;;;;;;;2.57;0.93;;;6.60;99.90;;;;;;5010030;28;20537;-73
2022/02/20 07:34:20;;;;;;;2.10;0.90;;;6.60;99.90;;;;;;5009785;28;20438;-73
2022/02/20 07:36:47;;;;;;;2.30;0.60;;;6.70;99.90;;;;;;5009932;28;20441;-74
2022/02/20 07:39:15;;;;;;;2.83;1.90;;;6.70;99.90;;;;;;5010226;28;20596;-74
2022/02/20 07:41:42;;;;;;;1.70;0.70;;;6.70;99.90;;;;;;5010164;28;20454;-73
2022/02/20 07:44:09;;;;;;;1.70;0.70;;;6.80;99.90;;;;;;5009628;28;20458;-74
2022/02/20 07:46:36;;;;;;;3.10;0.80;;;6.90;99.90;;;;;;5009703;28;20486;-74
2022/02/20 07:49:04;;;;;;;2.00;0.90;;;6.90;99.90;;;;;;5010049;28;20773;-73
2022/02/20 07:51:31;;;;;;;2.10;1.23;;;7.00;99.90;;;;;;5009751;28;20493;-74
2022/02/20 07:53:58;;;;;;;1.93;0.83;;;7.10;99.90;;;;;;5009917;28;20457;-74
2022/02/20 07:56:25;;;;;;;1.90;0.90;;;7.20;99.90;;;;;;5009484;28;20468;-73
2022/02/20 07:58:52;;;;;;;1.73;0.70;;;7.20;99.90;;;;;;5009899;28;20448;-73
2022/02/20 08:01:19;;;;;;;1.90;0.90;;;7.20;99.90;;;;;;5009770;28;20446;-74
2022/02/20 08:03:45;;;;;;;2.23;0.80;;;7.20;99.90;;;;;;5009723;28;20529;-73
2022/02/20 08:06:14;;;;;;;2.50;1.07;;;7.30;99.90;;;;;;5012165;28;20576;-74
2022/02/20 08:08:41;;;;;;;2.80;1.13;;;7.40;99.90;;;;;;5013599;28;20441;-74
2022/02/20 08:11:08;;;;;;;2.20;0.80;;;7.40;99.90;;;;;;5013562;28;20457;-73
2022/02/20 08:13:35;;;;;;;1.40;0.60;;;7.50;99.90;;;;;;5013623;28;20481;-73
2022/02/20 08:16:02;;;;;;;2.40;0.80;;;7.60;99.90;;;;;;5013034;28;20465;-74
2022/02/20 08:18:28;;;;;;;1.77;0.80;;;7.60;99.90;;;;;;5013241;28;20489;-73
2022/02/20 08:20:55;;;;;;;1.70;0.60;;;7.50;99.90;;;;;;5013631;28;20882;-73
2022/02/20 08:23:23;;;;;;;2.47;0.97;;;7.50;99.90;;;;;;5013583;28;20504;-74
2022/02/20 08:25:50;;;;;;;2.87;0.73;;;7.60;99.90;;;;;;5012852;28;21023;-73
2022/02/20 08:28:17;;;;;;;3.00;1.10;;;7.60;99.90;;;;;;5013457;28;20453;-73
2022/02/20 08:30:44;;;;;;;3.53;0.80;;;7.70;99.90;;;;;;5013247;28;20525;-73
2022/02/20 08:33:11;;;;;;;2.13;1.10;;;7.80;99.90;;;;;;5013104;28;20537;-73
2022/02/20 08:35:38;;;;;;;2.90;1.50;;;7.90;99.90;;;;;;5012955;28;20847;-73
2022/02/20 08:38:08;;;;;;;2.87;1.20;;;8.00;99.90;;;;;;5013375;28;20472;-73
2022/02/20 08:40:39;;;;;;;2.40;0.90;;;8.00;99.90;;;;;;5013322;28;20496;-73
2022/02/20 08:43:06;;;;;;;3.60;1.10;;;8.10;99.90;;;;;;5013397;28;20449;-73
2022/02/20 08:45:33;;;;;;;1.97;1.00;;;8.10;99.90;;;;;;5012846;28;20556;-73
2022/02/20 08:48:00;;;;;;;5.70;1.30;;;8.20;99.90;;;;;;5013145;28;21006;-74
2022/02/20 08:50:27;;;;;;;2.87;1.63;;;8.20;99.90;;;;;;5013186;28;20954;-73
2022/02/20 08:52:53;;;;;;;2.47;0.97;;;8.30;99.90;;;;;;5013294;28;20452;-73
2022/02/20 08:55:20;;;;;;;1.90;0.90;;;8.40;99.90;;;;;;5012574;28;20466;-73
2022/02/20 08:57:48;;;;;;;3.60;1.00;;;8.40;99.90;;;;;;5012860;28;20441;-74
2022/02/20 09:00:16;;;;;;;2.57;1.00;;;8.50;99.90;;;;;;5012630;28;20442;-73
2022/02/20 09:02:43;;;;;;;2.30;1.23;;;8.50;99.90;;;;;;5012615;28;20906;-73
2022/02/20 09:05:10;;;;;;;2.33;1.00;;;8.60;99.90;;;;;;5012443;28;20856;-74
2022/02/20 09:07:38;;;;;;;3.47;1.10;;;8.60;99.90;;;;;;5012369;28;21022;-74
2022/02/20 09:10:08;;;;;;;1.90;0.80;;;8.60;99.90;;;;;;5012549;28;20544;-73
2022/02/20 09:12:35;;;;;;;3.40;1.20;;;8.70;99.90;;;;;;5012414;28;20511;-73
2022/02/20 09:15:04;;;;;;;2.70;0.90;;;8.70;99.90;;;;;;5012328;28;20478;-73
2022/02/20 09:17:31;;;;;;;3.97;0.90;;;8.70;99.90;;;;;;5012365;28;20532;-74
2022/02/20 09:19:58;;;;;;;2.60;1.20;;;8.80;99.90;;;;;;5012340;28;20454;-73
2022/02/20 09:22:25;;;;;;;2.13;0.80;;;8.80;99.90;;;;;;5012326;28;20449;-74
2022/02/20 09:24:51;;;;;;;3.60;1.00;;;8.80;99.90;;;;;;5011710;28;20466;-73
2022/02/20 09:27:18;;;;;;;2.57;1.17;;;8.90;99.90;;;;;;5011943;28;20485;-73
2022/02/20 09:29:45;;;;;;;1.90;0.60;;;9.00;99.90;;;;;;5012370;28;20540;-73
2022/02/20 09:32:13;;;;;;;2.23;0.80;;;9.00;99.90;;;;;;5012195;28;20840;-73
2022/02/20 09:34:40;;;;;;;2.70;1.03;;;9.10;99.90;;;;;;5011722;28;20469;-73
2022/02/20 09:37:07;;;;;;;1.70;0.73;;;9.20;99.90;;;;;;5012086;28;20468;-73
2022/02/20 09:39:34;;;;;;;2.70;0.80;;;9.10;99.90;;;;;;5011961;28;20480;-73
2022/02/20 09:42:01;;;;;;;2.00;0.90;;;9.10;99.90;;;;;;5011785;28;20449;-73
2022/02/20 09:44:28;;;;;;;2.07;0.83;;;9.10;99.90;;;;;;5011367;28;20458;-73
2022/02/20 09:46:55;;;;;;;2.43;0.77;;;9.10;99.90;;;;;;5011610;28;20486;-73
2022/02/20 09:49:28;;;;;;;3.03;0.87;;;9.10;99.90;;;;;;5011123;28;20452;-73
2022/02/20 09:51:55;;;;;;;1.50;0.70;;;9.20;99.90;;;;;;5011810;28;20477;-73
2022/02/20 09:54:22;;;;;;;1.77;0.60;;;9.20;99.90;;;;;;5011092;28;20492;-75
2022/02/20 09:56:49;;;;;;;2.87;0.80;;;9.10;99.90;;;;;;5010228;28;21014;-73
2022/02/20 09:59:16;;;;;;;2.23;0.60;;;9.10;99.90;;;;;;5009232;28;20460;-73
2022/02/20 10:02:06;;;;;;;2.03;0.70;;;9.10;99.90;;;;;;5015427;28;20442;-73
2022/02/20 10:04:45;;;;;;;2.27;0.70;;;8.90;99.90;;;;;;5012012;28;20510;-73
2022/02/20 10:07:33;;;;;;;3.10;0.73;;;9.00;99.90;;;;;;5011286;28;20585;-73
2022/02/20 10:10:00;;;;;;;2.43;0.67;;;9.00;99.90;;;;;;5011572;28;20453;-73
2022/02/20 10:12:29;;;;;;;2.07;0.60;;;9.10;99.90;;;;;;5011592;28;20464;-74
2022/02/20 10:14:56;;;;;;;2.10;0.80;;;9.00;99.90;;;;;;5009770;28;20561;-74
2022/02/20 10:17:25;;;;;;;1.50;0.53;;;9.10;99.90;;;;;;5014845;28;20885;-73
2022/02/20 10:19:56;;;;;;;1.90;0.70;;;9.20;99.90;;;;;;5012922;28;20456;-74
2022/02/20 10:22:33;;;;;;;2.33;0.80;;;9.30;99.90;;;;;;5011420;28;20450;-73
2022/02/20 10:25:06;;;;;;;2.60;0.80;;;9.40;99.90;;;;;;5011663;28;20475;-73
2022/02/20 10:27:33;;;;;;;2.70;0.60;;;9.40;99.90;;;;;;5012260;28;20474;-74
2022/02/20 10:30:18;;;;;;;2.10;0.70;;;9.40;99.90;;;;;;5011556;28;20544;-73
2022/02/20 10:32:47;;;;;;;2.07;0.73;;;9.50;99.90;;;;;;5011476;28;20448;-73
2022/02/20 10:35:16;;;;;;;2.90;1.13;;;9.60;99.90;;;;;;5010963;28;20518;-72
2022/02/20 10:37:44;;;;;;;2.30;0.80;;;9.70;99.90;;;;;;5011191;28;20468;-73
2022/02/20 10:40:25;;;;;;;2.17;0.60;;;9.70;99.90;;;;;;5010898;28;20480;-73
2022/02/20 10:42:54;;;;;;;2.40;0.70;;;9.80;99.90;;;;;;5011397;28;20457;-72
2022/02/20 10:45:26;;;;;;;2.30;0.80;;;9.90;99.90;;;;;;5010799;28;21118;-72
2022/02/20 10:47:53;;;;;;;2.00;0.80;;;9.90;99.90;;;;;;5011088;28;20486;-72
2022/02/20 10:50:24;;;;;;;1.90;0.60;;;10.00;99.90;;;;;;5010939;28;20458;-72
2022/02/20 10:53:14;;;;;;;2.20;0.70;;;10.10;99.90;;;;;;5004345;28;20443;-72
2022/02/20 10:55:43;;;;;;;1.90;0.60;;;10.10;99.90;;;;;;5007371;28;20477;-71
2022/02/20 10:58:12;;;;;;;1.70;0.60;;;10.10;99.90;;;;;;5008308;28;20450;-72
2022/02/20 11:00:48;;;;;;;2.17;0.70;;;10.00;99.90;;;;;;5005246;28;20918;-71
2022/02/20 11:03:15;;;;;;;1.80;0.80;;;10.00;99.90;;;;;;5000546;28;20449;-72
2022/02/20 11:05:44;;;;;;;2.23;0.70;;;10.00;99.90;;;;;;5013310;28;20515;-71
2022/02/20 11:08:13;;;;;;;1.70;0.60;;;10.10;99.90;;;;;;5009497;28;20600;-72
2022/02/20 11:10:41;;;;;;;2.10;0.70;;;10.10;99.90;;;;;;5000484;28;20547;-72
2022/02/20 11:13:10;;;;;;;1.70;0.70;;;10.20;99.90;;;;;;5000794;28;20444;-72
2022/02/20 11:15:38;;;;;;;1.63;0.57;;;10.30;99.90;;;;;;5009528;28;20469;-72
2022/02/20 11:18:08;;;;;;;1.90;0.63;;;10.40;99.90;;;;;;5021116;28;20616;-71
2022/02/20 11:20:39;;;;;;;1.73;0.80;;;10.40;99.90;;;;;;5000051;28;20453;-72
2022/02/20 11:23:08;;;;;;;1.83;0.63;;;10.40;99.90;;;;;;5015729;28;20445;-72
2022/02/20 11:25:37;;;;;;;1.90;0.80;;;10.30;99.90;;;;;;5012667;28;20470;-72
2022/02/20 11:28:06;;;;;;;2.30;0.73;;;10.30;99.90;;;;;;5015621;28;20845;-71
2022/02/20 11:30:34;;;;;;;1.80;0.67;;;10.30;99.90;;;;;;5017635;28;20924;-71
2022/02/20 11:33:04;;;;;;;1.93;0.60;;;10.30;99.90;;;;;;5000914;28;20959;-73
2022/02/20 11:35:31;;;;;;;1.73;0.60;;;10.30;99.90;;;;;;5008988;28;20533;-72
2022/02/20 11:38:04;;;;;;;2.57;0.60;;;10.30;99.90;;;;;;5011089;28;20462;-71
2022/02/20 11:40:51;;;;;;;1.97;0.70;;;10.30;99.90;;;;;;5006151;28;20979;-71
2022/02/20 11:43:18;;;;;;;1.80;0.60;;;10.30;99.90;;;;;;5013006;28;20986;-71
2022/02/20 11:46:05;;;;;;;2.00;0.80;;;10.30;99.90;;;;;;5015664;28;20472;-71
2022/02/20 11:48:33;;;;;;;1.97;0.60;;;10.30;99.90;;;;;;5011493;28;20572;-71
2022/02/20 11:51:20;;;;;;;2.00;0.60;;;10.40;99.90;;;;;;5008548;28;20458;-71
2022/02/20 11:53:47;;;;;;;1.73;0.70;;;10.50;99.90;;;;;;5007899;28;20458;-71
2022/02/20 11:56:15;;;;;;;1.80;0.70;;;10.50;99.90;;;;;;5005983;28;20567;-71
2022/02/20 11:58:47;;;;;;;2.20;0.70;;;10.40;99.90;;;;;;5010957;28;21147;-71
2022/02/20 12:01:17;;;;;;;1.80;0.70;;;10.40;99.90;;;;;;5008550;28;20449;-70
2022/02/20 12:04:07;;;;;;;1.50;0.50;;;10.40;99.90;;;;;;5005209;28;20465;-70
2022/02/20 12:06:40;;;;;;;2.57;0.90;;;10.40;99.90;;;;;;5014507;28;20567;-73
2022/02/20 12:09:25;;;;;;;2.67;0.90;;;10.40;99.90;;;;;;5023372;28;20489;-72
2022/02/20 12:11:54;;;;;;;1.80;0.70;;;10.40;99.90;;;;;;5008574;28;20508;-72
2022/02/20 12:14:25;;;;;;;1.73;0.77;;;10.50;99.90;;;;;;5005948;28;20499;-72
2022/02/20 12:16:53;;;;;;;1.53;0.60;;;10.40;99.90;;;;;;5010710;28;20454;-70
2022/02/20 12:19:23;;;;;;;2.47;0.77;;;10.40;99.90;;;;;;5009547;28;20450;-73
2022/02/20 12:22:07;;;;;;;2.27;0.70;;;10.40;99.90;;;;;;5011428;28;20462;-71
2022/02/20 12:24:43;;;;;;;2.20;0.80;;;10.40;99.90;;;;;;5007958;28;20866;-70
2022/02/20 12:27:18;;;;;;;2.47;0.80;;;10.40;99.90;;;;;;5009638;28;20454;-70
2022/02/20 12:29:49;;;;;;;2.03;0.57;;;10.40;99.90;;;;;;5009299;28;20453;-71
2022/02/20 12:32:19;;;;;;;1.70;0.60;;;10.50;99.90;;;;;;5015261;28;20998;-71
2022/02/20 12:34:55;;;;;;;1.90;0.80;;;10.50;99.90;;;;;;5011027;28;20553;-71
2022/02/20 12:37:25;;;;;;;2.70;0.70;;;10.40;99.90;;;;;;5012972;28;20487;-72
2022/02/20 12:40:01;;;;;;;1.87;0.93;;;10.50;99.90;;;;;;5008117;28;20997;-72
2022/02/20 12:42:30;;;;;;;3.13;0.73;;;10.50;99.90;;;;;;5006451;28;20453;-72
2022/02/20 12:45:07;;;;;;;1.70;0.80;;;10.50;99.90;;;;;;5009995;28;21008;-72
2022/02/20 12:47:36;;;;;;;2.00;0.80;;;10.50;99.90;;;;;;5013172;28;20489;-72
2022/02/20 12:50:05;;;;;;;2.30;1.00;;;10.60;99.90;;;;;;5014583;28;20449;-72
2022/02/20 12:52:34;;;;;;;2.47;0.70;;;10.60;99.90;;;;;;5011365;28;20452;-71
2022/02/20 12:55:01;;;;;;;2.10;0.80;;;10.70;99.90;;;;;;5011274;28;20541;-72
2022/02/20 12:57:36;;;;;;;2.03;0.83;;;10.70;99.90;;;;;;5011684;28;20488;-72
2022/02/20 13:00:07;;;;;;;1.90;0.60;;;10.80;99.90;;;;;;5006653;28;20461;-70